GLO1552 SBSP-SBVT
Flight info
| Callsign | GLO1552 |
|---|---|
| Flight time | 1h 7m |
| Altitude | 39000 |
| Route | UREMI UZ42 CXI DCT SEGLI DCT TODET |
| Aircraft | B38M/M-DFGHIJ4J7KLORWXY/LB1 |
Departure
| Time | 2026-05-08 22:06 |
|---|---|
| Airport | Congonhas–Deputado Freitas Nobre Airport (SBSP) |
Arrival
| Time | 2026-05-08 23:13 |
|---|---|
| Airport | Eurico de Aguiar Salles International Airport (SBVT) |
| Time | Latitude | Longitude | Altitude | Speed | Heading |
|---|---|---|---|---|---|
| 2026-05-08 21:54 | -23.62568 | -46.65922 | 2603 ft | 0 kts | 237° |
| 2026-05-08 21:56 | -23.62567 | -46.65920 | 2603 ft | 2 kts | 237° |
| 2026-05-08 21:56 | -23.62551 | -46.65899 | 2603 ft | 4 kts | 207° |
| 2026-05-08 21:57 | -23.62532 | -46.65899 | 2603 ft | 4 kts | 159° |
| 2026-05-08 21:57 | -23.62508 | -46.65912 | 2603 ft | 4 kts | 148° |
| 2026-05-08 21:57 | -23.62487 | -46.65927 | 2603 ft | 1 kts | 147° |
| 2026-05-08 21:57 | -23.62486 | -46.65927 | 2603 ft | 0 kts | 147° |
| 2026-05-08 21:59 | -23.62487 | -46.65927 | 2603 ft | 1 kts | 147° |
| 2026-05-08 21:59 | -23.62524 | -46.65895 | 2603 ft | 12 kts | 135° |
| 2026-05-08 21:59 | -23.62592 | -46.65822 | 2604 ft | 15 kts | 135° |
| 2026-05-08 22:00 | -23.62679 | -46.65748 | 2604 ft | 16 kts | 146° |
| 2026-05-08 22:00 | -23.62778 | -46.65677 | 2605 ft | 18 kts | 147° |
| 2026-05-08 22:00 | -23.62874 | -46.65611 | 2605 ft | 13 kts | 147° |
| 2026-05-08 22:00 | -23.62916 | -46.65582 | 2605 ft | 3 kts | 147° |
| 2026-05-08 22:01 | -23.62942 | -46.65564 | 2605 ft | 5 kts | 147° |
| 2026-05-08 22:01 | -23.62996 | -46.65529 | 2605 ft | 16 kts | 156° |
| 2026-05-08 22:01 | -23.63120 | -46.65477 | 2605 ft | 17 kts | 149° |
| 2026-05-08 22:01 | -23.63199 | -46.65423 | 2605 ft | 14 kts | 147° |
| 2026-05-08 22:02 | -23.63286 | -46.65362 | 2605 ft | 16 kts | 147° |
| 2026-05-08 22:02 | -23.63372 | -46.65302 | 2604 ft | 14 kts | 147° |
| 2026-05-08 22:02 | -23.63405 | -46.65279 | 2604 ft | 5 kts | 147° |
| 2026-05-08 22:02 | -23.63418 | -46.65270 | 2604 ft | 0 kts | 147° |
| 2026-05-08 22:03 | -23.63419 | -46.65269 | 2604 ft | 1 kts | 147° |
| 2026-05-08 22:03 | -23.63434 | -46.65259 | 2604 ft | 4 kts | 147° |
| 2026-05-08 22:03 | -23.63462 | -46.65239 | 2603 ft | 0 kts | 147° |
| 2026-05-08 22:03 | -23.63464 | -46.65238 | 2603 ft | 2 kts | 147° |
| 2026-05-08 22:04 | -23.63493 | -46.65215 | 2603 ft | 1 kts | 135° |
| 2026-05-08 22:04 | -23.63502 | -46.65197 | 2603 ft | 4 kts | 112° |
| 2026-05-08 22:04 | -23.63493 | -46.65158 | 2602 ft | 7 kts | 49° |
| 2026-05-08 22:04 | -23.63447 | -46.65123 | 2602 ft | 8 kts | 17° |
| 2026-05-08 22:05 | -23.63404 | -46.65136 | 2605 ft | 5 kts | 333° |
| 2026-05-08 22:05 | -23.63398 | -46.65140 | 2606 ft | 0 kts | 328° |
| 2026-05-08 22:05 | -23.63363 | -46.65164 | 2608 ft | 26 kts | 328° |
| 2026-05-08 22:05 | -23.62958 | -46.65445 | 2612 ft | 109 kts | 327° |
| 2026-05-08 22:06 | -23.62420 | -46.65818 | 2606 ft | 158 kts | 328° |
| 2026-05-08 22:06 | -23.61300 | -46.66571 | 3177 ft | 182 kts | 329° |
| 2026-05-08 22:06 | -23.60274 | -46.67231 | 3974 ft | 166 kts | 338° |
| 2026-05-08 22:06 | -23.59008 | -46.67204 | 4349 ft | 189 kts | 18° |
| 2026-05-08 22:07 | -23.58004 | -46.66215 | 4505 ft | 217 kts | 58° |
| 2026-05-08 22:07 | -23.57781 | -46.64490 | 4501 ft | 237 kts | 101° |
| 2026-05-08 22:07 | -23.58612 | -46.62863 | 4600 ft | 245 kts | 128° |
| 2026-05-08 22:07 | -23.59628 | -46.61320 | 4788 ft | 256 kts | 118° |
| 2026-05-08 22:08 | -23.60290 | -46.59454 | 4830 ft | 270 kts | 104° |
| 2026-05-08 22:08 | -23.60840 | -46.57377 | 4893 ft | 287 kts | 104° |
| 2026-05-08 22:08 | -23.61728 | -46.55369 | 5438 ft | 299 kts | 129° |
| 2026-05-08 22:08 | -23.63234 | -46.53696 | 6548 ft | 303 kts | 135° |
| 2026-05-08 22:09 | -23.64742 | -46.52061 | 7617 ft | 308 kts | 135° |
| 2026-05-08 22:09 | -23.66277 | -46.50413 | 8708 ft | 312 kts | 135° |
| 2026-05-08 22:09 | -23.67841 | -46.48746 | 9805 ft | 316 kts | 135° |
| 2026-05-08 22:09 | -23.69425 | -46.47045 | 10646 ft | 327 kts | 132° |
| 2026-05-08 22:10 | -23.70661 | -46.44895 | 11355 ft | 336 kts | 107° |
| 2026-05-08 22:10 | -23.71005 | -46.43193 | 11881 ft | 338 kts | 90° |
| 2026-05-08 22:10 | -23.70694 | -46.39791 | 13103 ft | 338 kts | 77° |
| 2026-05-08 22:10 | -23.70355 | -46.37237 | 13982 ft | 343 kts | 77° |
| 2026-05-08 22:11 | -23.69998 | -46.34644 | 14765 ft | 347 kts | 77° |
| 2026-05-08 22:11 | -23.69630 | -46.32023 | 15569 ft | 351 kts | 77° |
| 2026-05-08 22:11 | -23.69256 | -46.29382 | 16335 ft | 355 kts | 77° |
| 2026-05-08 22:11 | -23.68874 | -46.26704 | 17081 ft | 359 kts | 77° |
| 2026-05-08 22:12 | -23.68488 | -46.24001 | 17833 ft | 363 kts | 77° |
| 2026-05-08 22:12 | -23.68096 | -46.21261 | 18514 ft | 367 kts | 77° |
| 2026-05-08 22:12 | -23.67700 | -46.18500 | 19102 ft | 372 kts | 77° |
| 2026-05-08 22:12 | -23.67297 | -46.15695 | 19676 ft | 377 kts | 77° |
| 2026-05-08 22:13 | -23.66778 | -46.12888 | 20212 ft | 378 kts | 66° |
| 2026-05-08 22:13 | -23.65683 | -46.10297 | 20775 ft | 379 kts | 59° |
| 2026-05-08 22:13 | -23.64530 | -46.07684 | 21312 ft | 384 kts | 59° |
| 2026-05-08 22:13 | -23.63354 | -46.05048 | 21911 ft | 389 kts | 59° |
| 2026-05-08 22:14 | -23.62157 | -46.02385 | 22431 ft | 394 kts | 59° |
| 2026-05-08 22:14 | -23.60942 | -45.99698 | 23007 ft | 397 kts | 59° |
| 2026-05-08 22:14 | -23.59708 | -45.96972 | 23527 ft | 402 kts | 59° |
| 2026-05-08 22:14 | -23.58463 | -45.94225 | 24026 ft | 406 kts | 59° |
| 2026-05-08 22:15 | -23.57631 | -45.92390 | 24359 ft | 407 kts | 59° |
| 2026-05-08 22:15 | -23.56370 | -45.89611 | 24821 ft | 411 kts | 59° |
| 2026-05-08 22:15 | -23.55100 | -45.86811 | 25274 ft | 414 kts | 58° |
| 2026-05-08 22:15 | -23.53817 | -45.83987 | 25751 ft | 417 kts | 58° |
| 2026-05-08 22:16 | -23.52522 | -45.81137 | 26187 ft | 421 kts | 58° |
| 2026-05-08 22:16 | -23.51214 | -45.78262 | 26645 ft | 424 kts | 58° |
| 2026-05-08 22:16 | -23.49900 | -45.75371 | 27087 ft | 428 kts | 58° |
| 2026-05-08 22:16 | -23.48575 | -45.72462 | 27561 ft | 430 kts | 58° |
| 2026-05-08 22:17 | -23.47235 | -45.69523 | 27959 ft | 435 kts | 58° |
| 2026-05-08 22:17 | -23.45887 | -45.66564 | 28377 ft | 438 kts | 58° |
| 2026-05-08 22:17 | -23.44531 | -45.63592 | 28799 ft | 441 kts | 58° |
| 2026-05-08 22:17 | -23.43161 | -45.60590 | 29220 ft | 444 kts | 58° |
| 2026-05-08 22:18 | -23.41781 | -45.57567 | 29613 ft | 447 kts | 59° |
| 2026-05-08 22:18 | -23.40390 | -45.54521 | 29981 ft | 451 kts | 59° |
| 2026-05-08 22:18 | -23.39048 | -45.51416 | 30312 ft | 458 kts | 66° |
| 2026-05-08 22:18 | -23.38255 | -45.48024 | 30687 ft | 463 kts | 74° |
| 2026-05-08 22:19 | -23.37515 | -45.44606 | 30979 ft | 467 kts | 73° |
| 2026-05-08 22:19 | -23.36760 | -45.41150 | 31296 ft | 470 kts | 73° |
| 2026-05-08 22:19 | -23.36013 | -45.37681 | 31601 ft | 473 kts | 74° |
| 2026-05-08 22:19 | -23.35265 | -45.34185 | 31920 ft | 476 kts | 74° |
| 2026-05-08 22:20 | -23.34511 | -45.30665 | 32254 ft | 479 kts | 74° |
| 2026-05-08 22:20 | -23.33753 | -45.27131 | 32567 ft | 481 kts | 74° |
| 2026-05-08 22:20 | -23.32996 | -45.23602 | 32866 ft | 485 kts | 74° |
| 2026-05-08 22:20 | -23.32214 | -45.19959 | 33183 ft | 487 kts | 75° |
| 2026-05-08 22:21 | -23.31440 | -45.16362 | 33493 ft | 490 kts | 75° |
| 2026-05-08 22:21 | -23.30664 | -45.12756 | 33805 ft | 492 kts | 75° |
| 2026-05-08 22:21 | -23.29882 | -45.09131 | 34079 ft | 495 kts | 75° |
| 2026-05-08 22:21 | -23.29093 | -45.05478 | 34352 ft | 497 kts | 75° |
| 2026-05-08 22:22 | -23.28301 | -45.01813 | 34627 ft | 499 kts | 75° |
| 2026-05-08 22:22 | -23.27501 | -44.98118 | 34892 ft | 501 kts | 75° |
| 2026-05-08 22:22 | -23.26702 | -44.94429 | 35270 ft | 503 kts | 75° |
| 2026-05-08 22:22 | -23.25898 | -44.90722 | 35578 ft | 503 kts | 75° |
| 2026-05-08 22:23 | -23.25091 | -44.87006 | 35943 ft | 503 kts | 75° |
| 2026-05-08 22:23 | -23.24288 | -44.83315 | 36257 ft | 503 kts | 75° |
| 2026-05-08 22:23 | -23.23483 | -44.79619 | 36616 ft | 502 kts | 75° |
| 2026-05-08 22:23 | -23.22682 | -44.75939 | 36976 ft | 500 kts | 75° |
| 2026-05-08 22:24 | -23.21880 | -44.72264 | 37324 ft | 499 kts | 75° |
| 2026-05-08 22:24 | -23.21079 | -44.68598 | 37632 ft | 498 kts | 75° |
| 2026-05-08 22:24 | -23.20419 | -44.65579 | 37879 ft | 497 kts | 75° |
| 2026-05-08 22:24 | -23.19753 | -44.62536 | 38150 ft | 497 kts | 75° |
| 2026-05-08 22:25 | -23.19043 | -44.59300 | 38400 ft | 496 kts | 75° |
| 2026-05-08 22:25 | -23.18292 | -44.55880 | 38690 ft | 494 kts | 75° |
| 2026-05-08 22:25 | -23.17525 | -44.52387 | 38895 ft | 494 kts | 75° |
| 2026-05-08 22:26 | -23.15926 | -44.45119 | 38969 ft | 495 kts | 75° |
| 2026-05-08 22:26 | -23.14314 | -44.37810 | 38971 ft | 494 kts | 75° |
| 2026-05-08 22:27 | -23.12724 | -44.30615 | 38976 ft | 493 kts | 75° |
| 2026-05-08 22:27 | -23.11117 | -44.23363 | 38972 ft | 493 kts | 75° |
| 2026-05-08 22:28 | -23.09513 | -44.16137 | 38970 ft | 492 kts | 75° |
| 2026-05-08 22:28 | -23.07904 | -44.08910 | 38956 ft | 492 kts | 75° |
| 2026-05-08 22:29 | -23.06290 | -44.01677 | 38972 ft | 494 kts | 75° |
| 2026-05-08 22:29 | -23.04673 | -43.94443 | 38956 ft | 493 kts | 75° |
| 2026-05-08 22:30 | -23.03050 | -43.87201 | 38943 ft | 493 kts | 75° |
| 2026-05-08 22:30 | -23.01426 | -43.79969 | 38947 ft | 493 kts | 75° |
| 2026-05-08 22:31 | -22.99805 | -43.72764 | 38938 ft | 492 kts | 75° |
| 2026-05-08 22:31 | -22.98769 | -43.69240 | 38929 ft | 488 kts | 64° |
| 2026-05-08 22:31 | -22.97417 | -43.65863 | 38945 ft | 490 kts | 65° |
| 2026-05-08 22:32 | -22.94752 | -43.59039 | 38943 ft | 490 kts | 65° |
| 2026-05-08 22:32 | -22.92081 | -43.52251 | 38945 ft | 489 kts | 64° |
| 2026-05-08 22:33 | -22.89401 | -43.45455 | 38941 ft | 489 kts | 64° |
| 2026-05-08 22:33 | -22.86722 | -43.38671 | 38943 ft | 488 kts | 64° |
| 2026-05-08 22:34 | -22.84049 | -43.31910 | 38939 ft | 488 kts | 65° |
| 2026-05-08 22:34 | -22.81244 | -43.25227 | 38923 ft | 485 kts | 55° |
| 2026-05-08 22:35 | -22.77530 | -43.19126 | 38917 ft | 485 kts | 54° |
| 2026-05-08 22:35 | -22.73831 | -43.13022 | 38950 ft | 485 kts | 54° |
| 2026-05-08 22:36 | -22.70143 | -43.06955 | 38998 ft | 485 kts | 54° |
| 2026-05-08 22:36 | -22.66405 | -43.00814 | 39009 ft | 485 kts | 54° |
| 2026-05-08 22:37 | -22.62693 | -42.94722 | 39020 ft | 484 kts | 54° |
| 2026-05-08 22:37 | -22.59007 | -42.88681 | 39033 ft | 484 kts | 54° |
| 2026-05-08 22:38 | -22.55293 | -42.82601 | 39018 ft | 484 kts | 54° |
| 2026-05-08 22:38 | -22.51577 | -42.76524 | 39040 ft | 484 kts | 54° |
| 2026-05-08 22:39 | -22.47862 | -42.70457 | 39044 ft | 483 kts | 54° |
| 2026-05-08 22:39 | -22.44148 | -42.64398 | 39043 ft | 483 kts | 54° |
| 2026-05-08 22:40 | -22.40435 | -42.58347 | 39063 ft | 484 kts | 55° |
| 2026-05-08 22:40 | -22.36712 | -42.52285 | 39061 ft | 484 kts | 54° |
| 2026-05-08 22:41 | -22.32982 | -42.46221 | 39079 ft | 484 kts | 54° |
| 2026-05-08 22:41 | -22.29193 | -42.40217 | 39062 ft | 482 kts | 50° |
| 2026-05-08 22:42 | -22.25069 | -42.34446 | 39068 ft | 483 kts | 51° |
| 2026-05-08 22:42 | -22.21001 | -42.28664 | 39084 ft | 484 kts | 51° |
| 2026-05-08 22:43 | -22.16934 | -42.22878 | 39064 ft | 484 kts | 51° |
| 2026-05-08 22:43 | -22.12869 | -42.17102 | 39076 ft | 484 kts | 51° |
| 2026-05-08 22:44 | -22.08791 | -42.11314 | 39065 ft | 484 kts | 51° |
| 2026-05-08 22:44 | -22.04712 | -42.05530 | 39057 ft | 484 kts | 51° |
| 2026-05-08 22:45 | -22.00637 | -41.99759 | 38986 ft | 482 kts | 51° |
| 2026-05-08 22:45 | -21.98611 | -41.96892 | 38298 ft | 482 kts | 51° |
| 2026-05-08 22:45 | -21.96566 | -41.93999 | 37214 ft | 490 kts | 51° |
| 2026-05-08 22:45 | -21.94490 | -41.91064 | 36349 ft | 493 kts | 51° |
| 2026-05-08 22:46 | -21.92421 | -41.88141 | 35894 ft | 487 kts | 51° |
| 2026-05-08 22:46 | -21.90388 | -41.85269 | 35533 ft | 479 kts | 51° |
| 2026-05-08 22:46 | -21.88377 | -41.82432 | 35013 ft | 475 kts | 51° |
| 2026-05-08 22:46 | -21.86379 | -41.79613 | 34490 ft | 472 kts | 51° |
| 2026-05-08 22:47 | -21.84390 | -41.76807 | 33956 ft | 469 kts | 52° |
| 2026-05-08 22:47 | -21.82440 | -41.74060 | 33349 ft | 468 kts | 52° |
| 2026-05-08 22:47 | -21.80472 | -41.71288 | 32793 ft | 465 kts | 52° |
| 2026-05-08 22:47 | -21.78517 | -41.68535 | 32285 ft | 461 kts | 52° |
| 2026-05-08 22:48 | -21.76571 | -41.65797 | 31799 ft | 458 kts | 52° |
| 2026-05-08 22:48 | -21.74644 | -41.63088 | 31281 ft | 455 kts | 52° |
| 2026-05-08 22:48 | -21.73347 | -41.61263 | 30934 ft | 454 kts | 52° |
| 2026-05-08 22:48 | -21.71428 | -41.58568 | 30437 ft | 452 kts | 52° |
| 2026-05-08 22:49 | -21.68907 | -41.55026 | 29734 ft | 449 kts | 52° |
| 2026-05-08 22:49 | -21.65763 | -41.50615 | 28859 ft | 444 kts | 52° |
| 2026-05-08 22:49 | -21.63867 | -41.47956 | 28402 ft | 440 kts | 52° |
| 2026-05-08 22:50 | -21.62016 | -41.45361 | 27932 ft | 436 kts | 52° |
| 2026-05-08 22:50 | -21.60175 | -41.42781 | 27479 ft | 432 kts | 52° |
| 2026-05-08 22:50 | -21.58355 | -41.40233 | 27026 ft | 429 kts | 52° |
| 2026-05-08 22:50 | -21.56546 | -41.37699 | 26585 ft | 425 kts | 52° |
| 2026-05-08 22:51 | -21.54750 | -41.35185 | 26139 ft | 422 kts | 52° |
| 2026-05-08 22:51 | -21.52969 | -41.32695 | 25698 ft | 419 kts | 52° |
| 2026-05-08 22:51 | -21.51202 | -41.30223 | 25279 ft | 417 kts | 51° |
| 2026-05-08 22:51 | -21.49401 | -41.27798 | 24832 ft | 414 kts | 45° |
| 2026-05-08 22:52 | -21.47248 | -41.25834 | 24381 ft | 410 kts | 37° |
| 2026-05-08 22:52 | -21.45041 | -41.23907 | 24003 ft | 407 kts | 38° |
| 2026-05-08 22:52 | -21.42859 | -41.21981 | 23596 ft | 405 kts | 38° |
| 2026-05-08 22:52 | -21.40699 | -41.20073 | 23222 ft | 399 kts | 38° |
| 2026-05-08 22:53 | -21.38569 | -41.18193 | 22808 ft | 396 kts | 38° |
| 2026-05-08 22:53 | -21.36448 | -41.16321 | 22321 ft | 394 kts | 38° |
| 2026-05-08 22:53 | -21.34335 | -41.14457 | 21861 ft | 392 kts | 38° |
| 2026-05-08 22:53 | -21.32245 | -41.12614 | 21388 ft | 389 kts | 38° |
| 2026-05-08 22:54 | -21.30154 | -41.10773 | 20906 ft | 388 kts | 38° |
| 2026-05-08 22:54 | -21.28069 | -41.08938 | 20452 ft | 386 kts | 38° |
| 2026-05-08 22:54 | -21.25999 | -41.07117 | 20032 ft | 383 kts | 38° |
| 2026-05-08 22:54 | -21.23948 | -41.05314 | 19609 ft | 380 kts | 39° |
| 2026-05-08 22:55 | -21.21911 | -41.03522 | 19184 ft | 378 kts | 38° |
| 2026-05-08 22:55 | -21.19884 | -41.01742 | 18763 ft | 375 kts | 39° |
| 2026-05-08 22:55 | -21.17870 | -40.99972 | 18342 ft | 373 kts | 39° |
| 2026-05-08 22:55 | -21.15870 | -40.98215 | 17878 ft | 370 kts | 39° |
| 2026-05-08 22:56 | -21.13891 | -40.96478 | 17439 ft | 367 kts | 39° |
| 2026-05-08 22:56 | -21.11928 | -40.94756 | 17026 ft | 363 kts | 39° |
| 2026-05-08 22:56 | -21.09979 | -40.93046 | 16616 ft | 360 kts | 39° |
| 2026-05-08 22:56 | -21.08055 | -40.91359 | 16213 ft | 356 kts | 38° |
| 2026-05-08 22:57 | -21.06145 | -40.89684 | 15770 ft | 354 kts | 38° |
| 2026-05-08 22:57 | -21.04246 | -40.88020 | 15379 ft | 350 kts | 38° |
| 2026-05-08 22:57 | -21.02398 | -40.86400 | 14998 ft | 347 kts | 38° |
| 2026-05-08 22:57 | -21.00514 | -40.84750 | 14613 ft | 344 kts | 38° |
| 2026-05-08 22:58 | -20.98672 | -40.83137 | 14220 ft | 341 kts | 38° |
| 2026-05-08 22:58 | -20.96866 | -40.81555 | 13863 ft | 338 kts | 38° |
| 2026-05-08 22:58 | -20.95056 | -40.79972 | 13424 ft | 335 kts | 38° |
| 2026-05-08 22:58 | -20.93258 | -40.78398 | 13018 ft | 332 kts | 38° |
| 2026-05-08 22:59 | -20.91478 | -40.76841 | 12637 ft | 329 kts | 38° |
| 2026-05-08 22:59 | -20.89720 | -40.75304 | 12266 ft | 325 kts | 38° |
| 2026-05-08 22:59 | -20.87972 | -40.73777 | 11897 ft | 322 kts | 38° |
| 2026-05-08 22:59 | -20.86247 | -40.72269 | 11528 ft | 319 kts | 38° |
| 2026-05-08 23:00 | -20.84534 | -40.70773 | 11162 ft | 316 kts | 38° |
| 2026-05-08 23:00 | -20.82845 | -40.69297 | 10908 ft | 310 kts | 38° |
| 2026-05-08 23:00 | -20.81205 | -40.67856 | 10782 ft | 300 kts | 40° |
| 2026-05-08 23:00 | -20.79879 | -40.66180 | 10606 ft | 293 kts | 52° |
| 2026-05-08 23:01 | -20.78713 | -40.64437 | 10477 ft | 284 kts | 52° |
| 2026-05-08 23:01 | -20.77578 | -40.62754 | 10341 ft | 275 kts | 52° |
| 2026-05-08 23:01 | -20.76480 | -40.61126 | 10213 ft | 266 kts | 52° |
| 2026-05-08 23:01 | -20.75404 | -40.59531 | 10009 ft | 262 kts | 52° |
| 2026-05-08 23:02 | -20.74330 | -40.57943 | 9734 ft | 268 kts | 52° |
| 2026-05-08 23:02 | -20.73231 | -40.56315 | 9405 ft | 271 kts | 52° |
| 2026-05-08 23:02 | -20.72123 | -40.54673 | 9107 ft | 272 kts | 52° |
| 2026-05-08 23:02 | -20.71015 | -40.53033 | 8805 ft | 272 kts | 52° |
| 2026-05-08 23:03 | -20.69911 | -40.51401 | 8518 ft | 269 kts | 52° |
| 2026-05-08 23:03 | -20.68821 | -40.49789 | 8232 ft | 267 kts | 52° |
| 2026-05-08 23:03 | -20.67738 | -40.48186 | 7940 ft | 265 kts | 52° |
| 2026-05-08 23:03 | -20.66662 | -40.46596 | 7655 ft | 263 kts | 51° |
| 2026-05-08 23:04 | -20.65597 | -40.45021 | 7374 ft | 260 kts | 51° |
| 2026-05-08 23:04 | -20.64554 | -40.43479 | 7100 ft | 258 kts | 51° |
| 2026-05-08 23:04 | -20.63496 | -40.41916 | 6825 ft | 256 kts | 51° |
| 2026-05-08 23:04 | -20.62456 | -40.40383 | 6539 ft | 253 kts | 51° |
| 2026-05-08 23:05 | -20.61443 | -40.38886 | 6268 ft | 251 kts | 51° |
| 2026-05-08 23:05 | -20.60422 | -40.37379 | 5960 ft | 250 kts | 51° |
| 2026-05-08 23:05 | -20.59402 | -40.35873 | 5665 ft | 249 kts | 51° |
| 2026-05-08 23:05 | -20.58388 | -40.34377 | 5368 ft | 248 kts | 51° |
| 2026-05-08 23:06 | -20.57379 | -40.32890 | 5085 ft | 246 kts | 51° |
| 2026-05-08 23:06 | -20.56366 | -40.31396 | 4808 ft | 244 kts | 51° |
| 2026-05-08 23:06 | -20.55375 | -40.29934 | 4526 ft | 242 kts | 51° |
| 2026-05-08 23:06 | -20.54400 | -40.28499 | 4245 ft | 240 kts | 51° |
| 2026-05-08 23:07 | -20.53433 | -40.27072 | 4086 ft | 233 kts | 51° |
| 2026-05-08 23:07 | -20.52499 | -40.25711 | 4053 ft | 221 kts | 47° |
| 2026-05-08 23:07 | -20.51317 | -40.24795 | 3966 ft | 205 kts | 19° |
| 2026-05-08 23:07 | -20.49939 | -40.24589 | 3835 ft | 198 kts | 1° |
| 2026-05-08 23:08 | -20.48579 | -40.24676 | 3695 ft | 193 kts | 357° |
| 2026-05-08 23:08 | -20.47269 | -40.24821 | 3576 ft | 183 kts | 355° |
| 2026-05-08 23:08 | -20.46040 | -40.24985 | 3456 ft | 173 kts | 355° |
| 2026-05-08 23:08 | -20.44879 | -40.25150 | 3305 ft | 164 kts | 355° |
| 2026-05-08 23:09 | -20.43771 | -40.25310 | 3172 ft | 159 kts | 355° |
| 2026-05-08 23:09 | -20.42677 | -40.25467 | 3025 ft | 157 kts | 354° |
| 2026-05-08 23:09 | -20.41588 | -40.25629 | 2871 ft | 158 kts | 353° |
| 2026-05-08 23:09 | -20.40502 | -40.25790 | 2686 ft | 158 kts | 354° |
| 2026-05-08 23:10 | -20.39411 | -40.25951 | 2481 ft | 158 kts | 353° |
| 2026-05-08 23:10 | -20.38324 | -40.26112 | 2288 ft | 157 kts | 353° |
| 2026-05-08 23:10 | -20.37222 | -40.26276 | 2080 ft | 158 kts | 353° |
| 2026-05-08 23:10 | -20.36181 | -40.26430 | 1896 ft | 146 kts | 353° |
| 2026-05-08 23:11 | -20.35189 | -40.26576 | 1698 ft | 142 kts | 353° |
| 2026-05-08 23:11 | -20.34208 | -40.26722 | 1514 ft | 143 kts | 354° |
| 2026-05-08 23:11 | -20.33224 | -40.26867 | 1340 ft | 142 kts | 354° |
| 2026-05-08 23:11 | -20.32244 | -40.27013 | 1149 ft | 143 kts | 354° |
| 2026-05-08 23:12 | -20.31254 | -40.27159 | 973 ft | 144 kts | 355° |
| 2026-05-08 23:12 | -20.30251 | -40.27304 | 801 ft | 147 kts | 354° |
| 2026-05-08 23:12 | -20.29237 | -40.27464 | 579 ft | 148 kts | 353° |
| 2026-05-08 23:12 | -20.28233 | -40.27620 | 370 ft | 146 kts | 354° |
| 2026-05-08 23:13 | -20.27196 | -40.27761 | 172 ft | 146 kts | 354° |
| 2026-05-08 23:13 | -20.26192 | -40.27908 | 28 ft | 143 kts | 354° |
| 2026-05-08 23:13 | -20.25375 | -40.28028 | 24 ft | 64 kts | 352° |
| 2026-05-08 23:13 | -20.25112 | -40.28066 | 21 ft | 32 kts | 352° |
| 2026-05-08 23:14 | -20.24974 | -40.28098 | 21 ft | 6 kts | 298° |
| 2026-05-08 23:14 | -20.24993 | -40.28154 | 22 ft | 11 kts | 213° |
| 2026-05-08 23:14 | -20.25102 | -40.28222 | 23 ft | 23 kts | 201° |
| 2026-05-08 23:14 | -20.25271 | -40.28220 | 20 ft | 26 kts | 172° |
| 2026-05-08 23:15 | -20.25460 | -40.28191 | 21 ft | 29 kts | 172° |
| 2026-05-08 23:15 | -20.25648 | -40.28163 | 21 ft | 24 kts | 172° |
| 2026-05-08 23:15 | -20.25805 | -40.28141 | 21 ft | 21 kts | 172° |
| 2026-05-08 23:15 | -20.25960 | -40.28117 | 21 ft | 24 kts | 172° |
| 2026-05-08 23:16 | -20.26130 | -40.28092 | 22 ft | 24 kts | 172° |
| 2026-05-08 23:16 | -20.26242 | -40.28076 | 20 ft | 25 kts | 172° |
| 2026-05-08 23:16 | -20.26389 | -40.28059 | 20 ft | 19 kts | 185° |
| 2026-05-08 23:16 | -20.26490 | -40.28125 | 20 ft | 13 kts | 251° |
| 2026-05-08 23:17 | -20.26495 | -40.28165 | 20 ft | 4 kts | 262° |
| 2026-05-08 23:17 | -20.26497 | -40.28180 | 21 ft | 0 kts | 262° |